sensor_id;sensor_type;location;lat;lon;timestamp;pressure;altitude;pressure_sealevel;temperature;humidity
68193;BME280;55012;47.562;18.414;2023-04-10T00:00:50;99372.47;;;1.79;100.00
68193;BME280;55012;47.562;18.414;2023-04-10T00:03:22;99385.81;;;1.79;100.00
68193;BME280;55012;47.562;18.414;2023-04-10T00:05:48;99395.97;;;1.77;100.00
68193;BME280;55012;47.562;18.414;2023-04-10T00:08:13;99395.97;;;1.77;100.00
68193;BME280;55012;47.562;18.414;2023-04-10T00:10:39;99398.63;;;1.77;100.00
68193;BME280;55012;47.562;18.414;2023-04-10T00:13:04;99393.06;;;1.73;100.00
68193;BME280;55012;47.562;18.414;2023-04-10T00:15:30;99392.25;;;1.73;100.00
68193;BME280;55012;47.562;18.414;2023-04-10T00:17:55;99386.13;;;1.72;100.00
68193;BME280;55012;47.562;18.414;2023-04-10T00:20:21;99379.00;;;1.67;100.00
68193;BME280;55012;47.562;18.414;2023-04-10T00:22:47;99383.00;;;1.65;100.00
68193;BME280;55012;47.562;18.414;2023-04-10T00:25:13;99374.00;;;1.61;100.00
68193;BME280;55012;47.562;18.414;2023-04-10T00:27:38;99375.63;;;1.57;100.00
68193;BME280;55012;47.562;18.414;2023-04-10T00:30:05;99383.63;;;1.57;100.00
68193;BME280;55012;47.562;18.414;2023-04-10T00:32:30;99381.00;;;1.52;100.00
68193;BME280;55012;47.562;18.414;2023-04-10T00:34:56;99380.25;;;1.46;100.00
68193;BME280;55012;47.562;18.414;2023-04-10T00:37:21;99375.00;;;1.41;100.00
68193;BME280;55012;47.562;18.414;2023-04-10T00:39:47;99375.78;;;1.42;100.00
68193;BME280;55012;47.562;18.414;2023-04-10T00:42:12;99366.72;;;1.43;100.00
68193;BME280;55012;47.562;18.414;2023-04-10T00:44:37;99359.53;;;1.38;100.00
68193;BME280;55012;47.562;18.414;2023-04-10T00:47:03;99361.41;;;1.37;100.00
68193;BME280;55012;47.562;18.414;2023-04-10T00:49:29;99355.28;;;1.37;100.00
68193;BME280;55012;47.562;18.414;2023-04-10T00:51:55;99346.78;;;1.35;100.00
68193;BME280;55012;47.562;18.414;2023-04-10T00:54:21;99341.47;;;1.35;100.00
68193;BME280;55012;47.562;18.414;2023-04-10T00:56:48;99337.75;;;1.31;100.00
68193;BME280;55012;47.562;18.414;2023-04-10T00:59:14;99329.53;;;1.27;100.00
68193;BME280;55012;47.562;18.414;2023-04-10T01:01:40;99335.63;;;1.33;100.00
68193;BME280;55012;47.562;18.414;2023-04-10T01:04:06;99333.78;;;1.28;100.00
68193;BME280;55012;47.562;18.414;2023-04-10T01:06:58;99326.63;;;1.24;100.00
68193;BME280;55012;47.562;18.414;2023-04-10T01:09:42;99320.31;;;1.15;100.00
68193;BME280;55012;47.562;18.414;2023-04-10T01:15:13;99311.31;;;1.10;100.00
68193;BME280;55012;47.562;18.414;2023-04-10T01:20:54;99301.19;;;1.07;100.00
68193;BME280;55012;47.562;18.414;2023-04-10T01:23:52;99299.34;;;1.08;100.00
68193;BME280;55012;47.562;18.414;2023-04-10T01:26:52;99284.19;;;1.03;100.00
68193;BME280;55012;47.562;18.414;2023-04-10T01:29:13;99289.53;;;1.03;100.00
68193;BME280;55012;47.562;18.414;2023-04-10T01:31:57;99276.78;;;1.00;100.00
68193;BME280;55012;47.562;18.414;2023-04-10T01:34:31;99280.56;;;0.94;100.00
68193;BME280;55012;47.562;18.414;2023-04-10T01:37:03;99268.41;;;0.83;100.00
68193;BME280;55012;47.562;18.414;2023-04-10T01:39:30;99263.72;;;0.70;100.00
68193;BME280;55012;47.562;18.414;2023-04-10T01:42:01;99271.50;;;0.61;100.00
68193;BME280;55012;47.562;18.414;2023-04-10T01:44:29;99266.50;;;0.54;100.00
68193;BME280;55012;47.562;18.414;2023-04-10T01:46:55;99268.72;;;0.42;100.00
68193;BME280;55012;47.562;18.414;2023-04-10T01:49:24;99265.31;;;0.32;100.00
68193;BME280;55012;47.562;18.414;2023-04-10T01:51:50;99267.78;;;0.23;100.00
68193;BME280;55012;47.562;18.414;2023-04-10T01:54:18;99271.56;;;0.12;100.00
68193;BME280;55012;47.562;18.414;2023-04-10T01:56:45;99268.69;;;0.03;100.00
68193;BME280;55012;47.562;18.414;2023-04-10T01:59:10;99259.94;;;-0.03;100.00
68193;BME280;55012;47.562;18.414;2023-04-10T02:01:36;99262.59;;;-0.03;100.00
68193;BME280;55012;47.562;18.414;2023-04-10T02:04:02;99242.91;;;-0.02;100.00
68193;BME280;55012;47.562;18.414;2023-04-10T02:09:19;99234.47;;;-0.14;100.00
68193;BME280;55012;47.562;18.414;2023-04-10T02:11:53;99230.28;;;-0.25;100.00
68193;BME280;55012;47.562;18.414;2023-04-10T02:14:21;99220.25;;;-0.33;100.00
68193;BME280;55012;47.562;18.414;2023-04-10T02:16:52;99222.63;;;-0.37;100.00
68193;BME280;55012;47.562;18.414;2023-04-10T02:19:21;99217.03;;;-0.35;100.00
68193;BME280;55012;47.562;18.414;2023-04-10T02:21:48;99198.16;;;-0.34;100.00
68193;BME280;55012;47.562;18.414;2023-04-10T02:24:14;99193.09;;;-0.30;100.00
68193;BME280;55012;47.562;18.414;2023-04-10T02:26:51;99179.22;;;-0.22;100.00
68193;BME280;55012;47.562;18.414;2023-04-10T02:29:18;99167.75;;;-0.17;100.00
68193;BME280;55012;47.562;18.414;2023-04-10T02:31:44;99158.97;;;-0.13;100.00
68193;BME280;55012;47.562;18.414;2023-04-10T02:34:10;99153.88;;;-0.09;100.00
68193;BME280;55012;47.562;18.414;2023-04-10T02:36:37;99143.22;;;-0.04;100.00
68193;BME280;55012;47.562;18.414;2023-04-10T02:39:03;99139.47;;;0.02;100.00
68193;BME280;55012;47.562;18.414;2023-04-10T02:41:29;99132.50;;;0.06;100.00
68193;BME280;55012;47.562;18.414;2023-04-10T02:43:55;99124.50;;;0.11;100.00
68193;BME280;55012;47.562;18.414;2023-04-10T02:46:20;99109.00;;;0.18;100.00
68193;BME280;55012;47.562;18.414;2023-04-10T02:48:46;99114.00;;;0.25;100.00
68193;BME280;55012;47.562;18.414;2023-04-10T02:51:12;99101.22;;;0.27;100.00
68193;BME280;55012;47.562;18.414;2023-04-10T02:53:37;99093.16;;;0.32;100.00
68193;BME280;55012;47.562;18.414;2023-04-10T02:56:03;99099.53;;;0.36;100.00
68193;BME280;55012;47.562;18.414;2023-04-10T02:58:32;99100.03;;;0.38;100.00
68193;BME280;55012;47.562;18.414;2023-04-10T03:00:58;99090.44;;;0.42;100.00
68193;BME280;55012;47.562;18.414;2023-04-10T03:03:23;99086.41;;;0.45;100.00
68193;BME280;55012;47.562;18.414;2023-04-10T03:05:49;99075.75;;;0.45;100.00
68193;BME280;55012;47.562;18.414;2023-04-10T03:08:15;99080.59;;;0.43;100.00
68193;BME280;55012;47.562;18.414;2023-04-10T03:10:45;99074.72;;;0.41;100.00
68193;BME280;55012;47.562;18.414;2023-04-10T03:13:13;99066.47;;;0.42;100.00
68193;BME280;55012;47.562;18.414;2023-04-10T03:15:39;99068.84;;;0.44;100.00
68193;BME280;55012;47.562;18.414;2023-04-10T03:18:04;99071.50;;;0.44;100.00
68193;BME280;55012;47.562;18.414;2023-04-10T03:20:35;99070.72;;;0.43;100.00
68193;BME280;55012;47.562;18.414;2023-04-10T03:23:02;99072.31;;;0.44;100.00
68193;BME280;55012;47.562;18.414;2023-04-10T03:25:28;99064.88;;;0.41;100.00
68193;BME280;55012;47.562;18.414;2023-04-10T03:27:53;99069.66;;;0.44;100.00
68193;BME280;55012;47.562;18.414;2023-04-10T03:30:19;99064.03;;;0.46;100.00
68193;BME280;55012;47.562;18.414;2023-04-10T03:32:45;99074.91;;;0.49;100.00
68193;BME280;55012;47.562;18.414;2023-04-10T03:35:11;99064.22;;;0.54;100.00
68193;BME280;55012;47.562;18.414;2023-04-10T03:37:36;99067.34;;;0.62;100.00
68193;BME280;55012;47.562;18.414;2023-04-10T03:40:06;99067.91;;;0.59;100.00
68193;BME280;55012;47.562;18.414;2023-04-10T03:42:32;99064.22;;;0.54;100.00
68193;BME280;55012;47.562;18.414;2023-04-10T03:44:57;99060.25;;;0.52;100.00
68193;BME280;55012;47.562;18.414;2023-04-10T03:47:23;99059.75;;;0.50;100.00
68193;BME280;55012;47.562;18.414;2023-04-10T03:49:48;99063.75;;;0.47;100.00
68193;BME280;55012;47.562;18.414;2023-04-10T03:52:14;99073.88;;;0.45;100.00
68193;BME280;55012;47.562;18.414;2023-04-10T03:54:39;99069.16;;;0.42;100.00
68193;BME280;55012;47.562;18.414;2023-04-10T03:57:05;99067.81;;;0.40;100.00
68193;BME280;55012;47.562;18.414;2023-04-10T03:59:30;99072.13;;;0.36;100.00
68193;BME280;55012;47.562;18.414;2023-04-10T04:01:56;99068.72;;;0.30;100.00
68193;BME280;55012;47.562;18.414;2023-04-10T04:04:21;99081.81;;;0.26;100.00
68193;BME280;55012;47.562;18.414;2023-04-10T04:06:47;99068.81;;;0.20;100.00
68193;BME280;55012;47.562;18.414;2023-04-10T04:09:13;99074.13;;;0.20;100.00
68193;BME280;55012;47.562;18.414;2023-04-10T04:11:38;99067.53;;;0.17;100.00
68193;BME280;55012;47.562;18.414;2023-04-10T04:14:03;99075.25;;;0.14;100.00
68193;BME280;55012;47.562;18.414;2023-04-10T04:16:29;99077.41;;;0.12;100.00
68193;BME280;55012;47.562;18.414;2023-04-10T04:18:54;99076.91;;;0.10;100.00
68193;BME280;55012;47.562;18.414;2023-04-10T04:21:20;99076.09;;;0.09;100.00
68193;BME280;55012;47.562;18.414;2023-04-10T04:23:45;99076.91;;;0.10;100.00
68193;BME280;55012;47.562;18.414;2023-04-10T04:26:11;99078.19;;;0.12;100.00
68193;BME280;55012;47.562;18.414;2023-04-10T04:28:36;99077.63;;;0.15;100.00
68193;BME280;55012;47.562;18.414;2023-04-10T04:31:02;99077.09;;;0.18;100.00
68193;BME280;55012;47.562;18.414;2023-04-10T04:33:27;99087.72;;;0.18;100.00
68193;BME280;55012;47.562;18.414;2023-04-10T04:35:53;99079.44;;;0.25;100.00
68193;BME280;55012;47.562;18.414;2023-04-10T04:38:18;99084.47;;;0.26;100.00
68193;BME280;55012;47.562;18.414;2023-04-10T04:40:44;99092.63;;;0.35;100.00
68193;BME280;55012;47.562;18.414;2023-04-10T04:43:10;99080.03;;;0.41;100.00
68193;BME280;55012;47.562;18.414;2023-04-10T04:45:35;99084.22;;;0.52;100.00
68193;BME280;55012;47.562;18.414;2023-04-10T04:48:01;99079.34;;;0.59;100.00
68193;BME280;55012;47.562;18.414;2023-04-10T04:50:26;99079.78;;;0.66;100.00
68193;BME280;55012;47.562;18.414;2023-04-10T04:52:52;99083.13;;;0.77;100.00
68193;BME280;55012;47.562;18.414;2023-04-10T04:55:17;99083.00;;;0.87;100.00
68193;BME280;55012;47.562;18.414;2023-04-10T04:57:43;99079.44;;;0.97;100.00
68193;BME280;55012;47.562;18.414;2023-04-10T05:00:09;99076.63;;;1.07;100.00
68193;BME280;55012;47.562;18.414;2023-04-10T05:02:34;99082.69;;;1.12;100.00
68193;BME280;55012;47.562;18.414;2023-04-10T05:05:00;99083.72;;;1.17;100.00
68193;BME280;55012;47.562;18.414;2023-04-10T05:07:25;99088.19;;;1.21;100.00
68193;BME280;55012;47.562;18.414;2023-04-10T05:09:51;99084.59;;;1.31;100.00
68193;BME280;55012;47.562;18.414;2023-04-10T05:12:17;99082.06;;;1.39;100.00
68193;BME280;55012;47.562;18.414;2023-04-10T05:14:42;99093.47;;;1.45;100.00
68193;BME280;55012;47.562;18.414;2023-04-10T05:17:07;99097.06;;;1.54;100.00
68193;BME280;55012;47.562;18.414;2023-04-10T05:19:33;99098.78;;;1.64;100.00
68193;BME280;55012;47.562;18.414;2023-04-10T05:21:58;99111.47;;;1.72;100.00
68193;BME280;55012;47.562;18.414;2023-04-10T05:24:24;99108.94;;;1.81;100.00
68193;BME280;55012;47.562;18.414;2023-04-10T05:26:49;99107.41;;;1.93;100.00
68193;BME280;55012;47.562;18.414;2023-04-10T05:29:15;99146.53;;;1.98;100.00
68193;BME280;55012;47.562;18.414;2023-04-10T05:31:40;99159.53;;;2.05;100.00
68193;BME280;55012;47.562;18.414;2023-04-10T05:34:06;99171.00;;;2.05;100.00
68193;BME280;55012;47.562;18.414;2023-04-10T05:36:31;99191.53;;;2.05;100.00
68193;BME280;55012;47.562;18.414;2023-04-10T05:38:57;99194.81;;;2.02;100.00
68193;BME280;55012;47.562;18.414;2023-04-10T05:41:22;99206.47;;;2.06;100.00
68193;BME280;55012;47.562;18.414;2023-04-10T05:43:47;99216.78;;;2.12;100.00
68193;BME280;55012;47.562;18.414;2023-04-10T05:46:14;99217.72;;;2.21;100.00
68193;BME280;55012;47.562;18.414;2023-04-10T05:48:39;99216.19;;;2.34;100.00
68193;BME280;55012;47.562;18.414;2023-04-10T05:51:05;99220.78;;;2.47;100.00
68193;BME280;55012;47.562;18.414;2023-04-10T05:53:31;99228.25;;;2.64;100.00
68193;BME280;55012;47.562;18.414;2023-04-10T05:55:59;99227.19;;;2.79;100.00
68193;BME280;55012;47.562;18.414;2023-04-10T05:58:26;99235.56;;;2.91;100.00
68193;BME280;55012;47.562;18.414;2023-04-10T06:00:52;99246.75;;;2.93;100.00
68193;BME280;55012;47.562;18.414;2023-04-10T06:03:18;99255.97;;;3.01;100.00
68193;BME280;55012;47.562;18.414;2023-04-10T06:05:44;99271.03;;;3.10;100.00
68193;BME280;55012;47.562;18.414;2023-04-10T06:08:10;99275.19;;;3.17;100.00
68193;BME280;55012;47.562;18.414;2023-04-10T06:10:36;99282.84;;;3.23;100.00
68193;BME280;55012;47.562;18.414;2023-04-10T06:13:01;99294.69;;;3.31;100.00
68193;BME280;55012;47.562;18.414;2023-04-10T06:15:27;99304.59;;;3.30;100.00
68193;BME280;55012;47.562;18.414;2023-04-10T06:17:52;99313.34;;;3.36;100.00
68193;BME280;55012;47.562;18.414;2023-04-10T06:20:18;99318.72;;;3.50;100.00
68193;BME280;55012;47.562;18.414;2023-04-10T06:22:44;99327.53;;;3.64;100.00
68193;BME280;55012;47.562;18.414;2023-04-10T06:25:10;99331.91;;;3.74;100.00
68193;BME280;55012;47.562;18.414;2023-04-10T06:27:36;99347.28;;;3.82;100.00
68193;BME280;55012;47.562;18.414;2023-04-10T06:30:01;99355.28;;;3.95;100.00
68193;BME280;55012;47.562;18.414;2023-04-10T06:32:27;99368.97;;;4.08;100.00
68193;BME280;55012;47.562;18.414;2023-04-10T06:34:52;99386.53;;;4.14;100.00
68193;BME280;55012;47.562;18.414;2023-04-10T06:37:18;99407.53;;;4.20;100.00
68193;BME280;55012;47.562;18.414;2023-04-10T06:39:43;99411.09;;;4.30;100.00
68193;BME280;55012;47.562;18.414;2023-04-10T06:42:09;99411.00;;;4.35;100.00
68193;BME280;55012;47.562;18.414;2023-04-10T06:44:34;99410.13;;;4.39;100.00
68193;BME280;55012;47.562;18.414;2023-04-10T06:47:00;99428.06;;;4.39;100.00
68193;BME280;55012;47.562;18.414;2023-04-10T06:49:25;99423.28;;;4.36;100.00
68193;BME280;55012;47.562;18.414;2023-04-10T06:51:50;99428.06;;;4.39;100.00
68193;BME280;55012;47.562;18.414;2023-04-10T06:54:16;99423.50;;;4.39;100.00
68193;BME280;55012;47.562;18.414;2023-04-10T06:56:41;99429.66;;;4.26;100.00
68193;BME280;55012;47.562;18.414;2023-04-10T06:59:07;99423.09;;;4.32;100.00
68193;BME280;55012;47.562;18.414;2023-04-10T07:01:33;99413.16;;;4.46;100.00
68193;BME280;55012;47.562;18.414;2023-04-10T07:03:58;99406.59;;;4.66;100.00
68193;BME280;55012;47.562;18.414;2023-04-10T07:06:23;99395.47;;;4.73;100.00
68193;BME280;55012;47.562;18.414;2023-04-10T07:08:50;99394.75;;;4.81;100.00
68193;BME280;55012;47.562;18.414;2023-04-10T07:11:15;99383.31;;;4.89;100.00
68193;BME280;55012;47.562;18.414;2023-04-10T07:13:41;99390.31;;;4.99;100.00
68193;BME280;55012;47.562;18.414;2023-04-10T07:16:07;99391.16;;;5.08;100.00
68193;BME280;55012;47.562;18.414;2023-04-10T07:18:33;99386.34;;;5.19;100.00
68193;BME280;55012;47.562;18.414;2023-04-10T07:21:00;99381.66;;;5.24;100.00
68193;BME280;55012;47.562;18.414;2023-04-10T07:23:25;99371.66;;;5.39;100.00
68193;BME280;55012;47.562;18.414;2023-04-10T07:25:51;99380.03;;;5.46;100.00
68193;BME280;55012;47.562;18.414;2023-04-10T07:28:17;99384.88;;;5.35;100.00
68193;BME280;55012;47.562;18.414;2023-04-10T07:30:42;99392.94;;;5.35;100.00
68193;BME280;55012;47.562;18.414;2023-04-10T07:33:08;99403.44;;;5.23;100.00
68193;BME280;55012;47.562;18.414;2023-04-10T07:35:34;99405.09;;;4.96;100.00
68193;BME280;55012;47.562;18.414;2023-04-10T07:38:00;99421.56;;;4.81;100.00
68193;BME280;55012;47.562;18.414;2023-04-10T07:40:26;99418.66;;;4.77;100.00
68193;BME280;55012;47.562;18.414;2023-04-10T07:42:51;99398.63;;;4.75;100.00
68193;BME280;55012;47.562;18.414;2023-04-10T07:45:17;99390.38;;;4.71;100.00
68193;BME280;55012;47.562;18.414;2023-04-10T07:47:42;99403.59;;;4.68;100.00
68193;BME280;55012;47.562;18.414;2023-04-10T07:50:08;99391.31;;;4.67;100.00
68193;BME280;55012;47.562;18.414;2023-04-10T07:52:34;99381.78;;;4.61;100.00
68193;BME280;55012;47.562;18.414;2023-04-10T07:55:03;99370.88;;;4.57;100.00
68193;BME280;55012;47.562;18.414;2023-04-10T07:57:28;99356.41;;;4.58;100.00
68193;BME280;55012;47.562;18.414;2023-04-10T07:59:56;99336.13;;;4.66;100.00
68193;BME280;55012;47.562;18.414;2023-04-10T08:02:21;99313.03;;;4.78;100.00
68193;BME280;55012;47.562;18.414;2023-04-10T08:04:47;99295.13;;;4.88;100.00
68193;BME280;55012;47.562;18.414;2023-04-10T08:07:12;99284.72;;;4.86;100.00
68193;BME280;55012;47.562;18.414;2023-04-10T08:09:38;99271.69;;;4.93;100.00
68193;BME280;55012;47.562;18.414;2023-04-10T08:12:03;99252.19;;;5.01;100.00
68193;BME280;55012;47.562;18.414;2023-04-10T08:14:29;99248.75;;;5.10;100.00
68193;BME280;55012;47.562;18.414;2023-04-10T08:16:54;99242.50;;;5.23;100.00
68193;BME280;55012;47.562;18.414;2023-04-10T08:19:20;99225.94;;;5.29;100.00
68193;BME280;55012;47.562;18.414;2023-04-10T08:21:45;99208.19;;;5.42;100.00
68193;BME280;55012;47.562;18.414;2023-04-10T08:24:10;99219.25;;;5.49;100.00
68193;BME280;55012;47.562;18.414;2023-04-10T08:26:36;99201.28;;;5.58;100.00
68193;BME280;55012;47.562;18.414;2023-04-10T08:29:01;99193.72;;;5.69;100.00
68193;BME280;55012;47.562;18.414;2023-04-10T08:31:28;99185.53;;;5.83;100.00
68193;BME280;55012;47.562;18.414;2023-04-10T08:33:54;99169.75;;;5.90;100.00
68193;BME280;55012;47.562;18.414;2023-04-10T08:36:20;99171.22;;;5.96;100.00
68193;BME280;55012;47.562;18.414;2023-04-10T08:38:46;99166.47;;;6.02;100.00
68193;BME280;55012;47.562;18.414;2023-04-10T08:41:13;99170.25;;;6.09;100.00
68193;BME280;55012;47.562;18.414;2023-04-10T08:43:39;99172.78;;;6.14;100.00
68193;BME280;55012;47.562;18.414;2023-04-10T08:46:05;99162.50;;;6.25;100.00
68193;BME280;55012;47.562;18.414;2023-04-10T08:48:37;99155.41;;;6.38;100.00
68193;BME280;55012;47.562;18.414;2023-04-10T08:51:04;99153.94;;;6.49;100.00
68193;BME280;55012;47.562;18.414;2023-04-10T08:53:30;99148.69;;;6.61;100.00
68193;BME280;55012;47.562;18.414;2023-04-10T08:55:56;99165.41;;;6.75;100.00
68193;BME280;55012;47.562;18.414;2023-04-10T08:58:23;99156.03;;;6.90;100.00
68193;BME280;55012;47.562;18.414;2023-04-10T09:00:49;99160.09;;;7.05;100.00
68193;BME280;55012;47.562;18.414;2023-04-10T09:03:15;99166.22;;;7.14;100.00
68193;BME280;55012;47.562;18.414;2023-04-10T09:05:41;99169.00;;;7.26;100.00
68193;BME280;55012;47.562;18.414;2023-04-10T09:08:07;99171.66;;;7.35;100.00
68193;BME280;55012;47.562;18.414;2023-04-10T09:10:34;99175.56;;;7.46;100.00
68193;BME280;55012;47.562;18.414;2023-04-10T09:12:59;99163.81;;;7.51;100.00
68193;BME280;55012;47.562;18.414;2023-04-10T09:15:25;99179.78;;;7.56;100.00
68193;BME280;55012;47.562;18.414;2023-04-10T09:17:58;99189.56;;;7.60;100.00
68193;BME280;55012;47.562;18.414;2023-04-10T09:20:26;99181.44;;;7.69;100.00
68193;BME280;55012;47.562;18.414;2023-04-10T09:22:52;99210.75;;;7.71;100.00
68193;BME280;55012;47.562;18.414;2023-04-10T09:25:33;99227.38;;;7.73;100.00
68193;BME280;55012;47.562;18.414;2023-04-10T09:28:00;99253.63;;;7.76;100.00
68193;BME280;55012;47.562;18.414;2023-04-10T09:30:35;99266.13;;;7.80;100.00
68193;BME280;55012;47.562;18.414;2023-04-10T09:33:01;99276.53;;;7.91;100.00
68193;BME280;55012;47.562;18.414;2023-04-10T09:35:36;99298.47;;;8.01;100.00
68193;BME280;55012;47.562;18.414;2023-04-10T09:38:13;99310.97;;;8.06;100.00
68193;BME280;55012;47.562;18.414;2023-04-10T09:40:39;99339.91;;;8.17;100.00
68193;BME280;55012;47.562;18.414;2023-04-10T09:43:22;99331.94;;;8.30;100.00
68193;BME280;55012;47.562;18.414;2023-04-10T09:45:53;99349.97;;;8.38;100.00
68193;BME280;55012;47.562;18.414;2023-04-10T09:48:20;99357.84;;;8.43;100.00
68193;BME280;55012;47.562;18.414;2023-04-10T09:50:46;99357.34;;;8.50;100.00
68193;BME280;55012;47.562;18.414;2023-04-10T09:53:14;99349.97;;;8.59;100.00
68193;BME280;55012;47.562;18.414;2023-04-10T09:55:42;99369.41;;;8.73;100.00
68193;BME280;55012;47.562;18.414;2023-04-10T09:58:08;99377.88;;;8.84;100.00
68193;BME280;55012;47.562;18.414;2023-04-10T10:00:39;99379.25;;;8.90;100.00
68193;BME280;55012;47.562;18.414;2023-04-10T10:03:16;99393.28;;;9.04;100.00
68193;BME280;55012;47.562;18.414;2023-04-10T10:05:45;99396.03;;;9.16;100.00
68193;BME280;55012;47.562;18.414;2023-04-10T10:08:11;99419.78;;;9.23;100.00
68193;BME280;55012;47.562;18.414;2023-04-10T10:10:40;99458.44;;;9.36;100.00
68193;BME280;55012;47.562;18.414;2023-04-10T10:13:10;99500.03;;;9.55;100.00
68193;BME280;55012;47.562;18.414;2023-04-10T10:16:04;99513.56;;;9.68;100.00
68193;BME280;55012;47.562;18.414;2023-04-10T10:18:54;99527.38;;;9.87;100.00
68193;BME280;55012;47.562;18.414;2023-04-10T10:21:23;99525.59;;;9.91;100.00
68193;BME280;55012;47.562;18.414;2023-04-10T10:23:50;99507.06;;;10.02;100.00
68193;BME280;55012;47.562;18.414;2023-04-10T10:26:19;99502.38;;;10.23;100.00
68193;BME280;55012;47.562;18.414;2023-04-10T10:28:46;99508.72;;;10.39;100.00
68193;BME280;55012;47.562;18.414;2023-04-10T10:31:13;99527.31;;;10.41;100.00
68193;BME280;55012;47.562;18.414;2023-04-10T10:33:39;99539.84;;;10.46;100.00
68193;BME280;55012;47.562;18.414;2023-04-10T10:36:05;99545.78;;;10.39;100.00
68193;BME280;55012;47.562;18.414;2023-04-10T10:38:32;99544.31;;;10.29;100.00
68193;BME280;55012;47.562;18.414;2023-04-10T10:41:09;99548.00;;;10.25;100.00
68193;BME280;55012;47.562;18.414;2023-04-10T10:46:39;99539.91;;;10.25;100.00
68193;BME280;55012;47.562;18.414;2023-04-10T10:49:05;99533.16;;;10.31;100.00
68193;BME280;55012;47.562;18.414;2023-04-10T10:51:44;99537.56;;;10.48;100.00
68193;BME280;55012;47.562;18.414;2023-04-10T10:54:31;99544.03;;;10.67;100.00
68193;BME280;55012;47.562;18.414;2023-04-10T10:56:57;99544.81;;;10.92;100.00
68193;BME280;55012;47.562;18.414;2023-04-10T10:59:58;99553.78;;;11.33;100.00
68193;BME280;55012;47.562;18.414;2023-04-10T11:02:24;99523.38;;;11.52;100.00
68193;BME280;55012;47.562;18.414;2023-04-10T11:04:49;99522.81;;;11.59;100.00
68193;BME280;55012;47.562;18.414;2023-04-10T11:13:22;99485.47;;;11.52;100.00
68193;BME280;55012;47.562;18.414;2023-04-10T11:15:50;99491.25;;;11.66;100.00
68193;BME280;55012;47.562;18.414;2023-04-10T11:18:16;99478.13;;;11.80;100.00
68193;BME280;55012;47.562;18.414;2023-04-10T11:28:57;99149.47;;;12.42;100.00
68193;BME280;55012;47.562;18.414;2023-04-10T11:31:23;99166.31;;;12.51;100.00
68193;BME280;55012;47.562;18.414;2023-04-10T11:34:09;99156.38;;;12.81;100.00
68193;BME280;55012;47.562;18.414;2023-04-10T11:36:38;99121.22;;;12.88;100.00
68193;BME280;55012;47.562;18.414;2023-04-10T11:39:06;99108.25;;;13.24;100.00
68193;BME280;55012;47.562;18.414;2023-04-10T11:41:39;99124.72;;;13.38;100.00
68193;BME280;55012;47.562;18.414;2023-04-10T11:44:07;99127.25;;;13.51;100.00
68193;BME280;55012;47.562;18.414;2023-04-10T11:46:41;99171.03;;;13.72;100.00
68193;BME280;55012;47.562;18.414;2023-04-10T11:49:09;99188.03;;;13.92;100.00
68193;BME280;55012;47.562;18.414;2023-04-10T11:51:38;99306.81;;;13.88;100.00
68193;BME280;55012;47.562;18.414;2023-04-10T11:54:12;99480.09;;;13.87;100.00
68193;BME280;55012;47.562;18.414;2023-04-10T11:56:40;99638.41;;;13.96;100.00
68193;BME280;55012;47.562;18.414;2023-04-10T11:59:06;99754.50;;;13.92;100.00
68193;BME280;55012;47.562;18.414;2023-04-10T12:01:35;99764.03;;;14.02;100.00
68193;BME280;55012;47.562;18.414;2023-04-10T12:04:01;99827.63;;;14.13;100.00
68193;BME280;55012;47.562;18.414;2023-04-10T12:06:26;99965.59;;;14.13;100.00
68193;BME280;55012;47.562;18.414;2023-04-10T12:08:53;99974.28;;;13.87;100.00
68193;BME280;55012;47.562;18.414;2023-04-10T12:11:23;99970.50;;;13.75;100.00
68193;BME280;55012;47.562;18.414;2023-04-10T12:13:55;99987.97;;;13.62;100.00
68193;BME280;55012;47.562;18.414;2023-04-10T12:16:21;99974.78;;;13.48;100.00
68193;BME280;55012;47.562;18.414;2023-04-10T12:18:47;99968.66;;;13.52;100.00
68193;BME280;55012;47.562;18.414;2023-04-10T12:21:13;99962.97;;;13.57;100.00
68193;BME280;55012;47.562;18.414;2023-04-10T12:23:42;99960.16;;;13.53;100.00
68193;BME280;55012;47.562;18.414;2023-04-10T12:26:10;99947.63;;;13.64;100.00
68193;BME280;55012;47.562;18.414;2023-04-10T12:28:41;99947.78;;;13.84;100.00
68193;BME280;55012;47.562;18.414;2023-04-10T12:31:07;99937.59;;;13.96;100.00
68193;BME280;55012;47.562;18.414;2023-04-10T12:33:33;99924.72;;;14.09;100.00
68193;BME280;55012;47.562;18.414;2023-04-10T12:35:59;99908.13;;;14.14;100.00
68193;BME280;55012;47.562;18.414;2023-04-10T12:38:41;99922.19;;;14.16;100.00
68193;BME280;55012;47.562;18.414;2023-04-10T12:41:08;99909.44;;;14.20;100.00
68193;BME280;55012;47.562;18.414;2023-04-10T12:43:40;99896.16;;;14.34;100.00
68193;BME280;55012;47.562;18.414;2023-04-10T12:46:08;99893.47;;;14.70;100.00
68193;BME280;55012;47.562;18.414;2023-04-10T12:48:34;99889.91;;;14.85;100.00
68193;BME280;55012;47.562;18.414;2023-04-10T12:51:00;99888.41;;;14.87;100.00
68193;BME280;55012;47.562;18.414;2023-04-10T12:53:26;99884.97;;;14.91;100.00
68193;BME280;55012;47.562;18.414;2023-04-10T12:56:00;99892.28;;;14.86;100.00
68193;BME280;55012;47.562;18.414;2023-04-10T12:58:27;99879.59;;;14.75;100.00
68193;BME280;55012;47.562;18.414;2023-04-10T13:00:53;99878.50;;;14.79;100.00
68193;BME280;55012;47.562;18.414;2023-04-10T13:03:22;99878.59;;;14.83;100.00
68193;BME280;55012;47.562;18.414;2023-04-10T13:05:48;99869.47;;;14.75;100.00
68193;BME280;55012;47.562;18.414;2023-04-10T13:08:14;99861.31;;;14.75;100.00
68193;BME280;55012;47.562;18.414;2023-04-10T13:10:39;99861.78;;;14.61;100.00
68193;BME280;55012;47.562;18.414;2023-04-10T13:13:06;99865.81;;;14.32;100.00
68193;BME280;55012;47.562;18.414;2023-04-10T13:15:33;99856.97;;;14.04;100.00